sensor_id;sensor_type;location;lat;lon;timestamp;pressure;altitude;pressure_sealevel;temperature;humidity
70127;BME280;57491;42.694;23.314;2023-01-24T00:01:13;96096.22;;;6.70;70.12
70127;BME280;57491;42.694;23.314;2023-01-24T00:03:42;96095.19;;;6.52;70.53
70127;BME280;57491;42.694;23.314;2023-01-24T00:06:09;96087.25;;;6.75;70.44
70127;BME280;57491;42.694;23.314;2023-01-24T00:08:36;96081.66;;;6.69;70.23
70127;BME280;57491;42.694;23.314;2023-01-24T00:11:06;96088.50;;;6.50;71.01
70127;BME280;57491;42.694;23.314;2023-01-24T00:13:34;96093.22;;;6.45;71.48
70127;BME280;57491;42.694;23.314;2023-01-24T00:16:03;96100.69;;;6.38;71.55
70127;BME280;57491;42.694;23.314;2023-01-24T00:18:30;96084.81;;;6.43;71.31
70127;BME280;57491;42.694;23.314;2023-01-24T00:21:04;96108.16;;;6.41;71.33
70127;BME280;57491;42.694;23.314;2023-01-24T00:23:35;96116.03;;;6.40;71.33
70127;BME280;57491;42.694;23.314;2023-01-24T00:26:02;96114.53;;;6.37;71.53
70127;BME280;57491;42.694;23.314;2023-01-24T00:28:29;96106.41;;;6.42;71.43
70127;BME280;57491;42.694;23.314;2023-01-24T00:30:56;96116.34;;;6.46;71.41
70127;BME280;57491;42.694;23.314;2023-01-24T00:33:24;96123.13;;;6.38;71.62
70127;BME280;57491;42.694;23.314;2023-01-24T00:35:51;96116.91;;;6.50;71.37
70127;BME280;57491;42.694;23.314;2023-01-24T00:38:20;96120.50;;;6.58;70.83
70127;BME280;57491;42.694;23.314;2023-01-24T00:40:48;96116.09;;;6.49;70.99
70127;BME280;57491;42.694;23.314;2023-01-24T00:43:15;96124.44;;;6.32;71.59
70127;BME280;57491;42.694;23.314;2023-01-24T00:45:43;96115.81;;;6.22;72.19
70127;BME280;57491;42.694;23.314;2023-01-24T00:48:11;96113.75;;;6.16;71.87
70127;BME280;57491;42.694;23.314;2023-01-24T00:50:38;96121.97;;;6.31;71.78
70127;BME280;57491;42.694;23.314;2023-01-24T00:53:05;96117.63;;;6.31;71.88
70127;BME280;57491;42.694;23.314;2023-01-24T00:55:34;96109.25;;;6.18;71.99
70127;BME280;57491;42.694;23.314;2023-01-24T00:58:01;96127.09;;;6.21;72.11
70127;BME280;57491;42.694;23.314;2023-01-24T01:00:28;96108.50;;;6.06;72.37
70127;BME280;57491;42.694;23.314;2023-01-24T01:02:55;96107.00;;;6.04;72.02
70127;BME280;57491;42.694;23.314;2023-01-24T01:05:22;96123.44;;;6.23;72.39
70127;BME280;57491;42.694;23.314;2023-01-24T01:07:49;96123.31;;;6.25;71.88
70127;BME280;57491;42.694;23.314;2023-01-24T01:10:16;96114.59;;;6.26;71.67
70127;BME280;57491;42.694;23.314;2023-01-24T01:12:45;96115.13;;;6.20;71.56
70127;BME280;57491;42.694;23.314;2023-01-24T01:15:12;96119.91;;;6.04;71.96
70127;BME280;57491;42.694;23.314;2023-01-24T01:17:39;96119.16;;;6.13;72.44
70127;BME280;57491;42.694;23.314;2023-01-24T01:20:07;96117.81;;;6.18;71.78
70127;BME280;57491;42.694;23.314;2023-01-24T01:22:34;96111.59;;;6.21;71.32
70127;BME280;57491;42.694;23.314;2023-01-24T01:25:01;96119.41;;;6.10;71.46
70127;BME280;57491;42.694;23.314;2023-01-24T01:27:28;96125.00;;;6.15;71.77
70127;BME280;57491;42.694;23.314;2023-01-24T01:29:57;96132.75;;;6.15;71.61
70127;BME280;57491;42.694;23.314;2023-01-24T01:32:24;96126.41;;;5.98;71.89
70127;BME280;57491;42.694;23.314;2023-01-24T01:34:51;96126.50;;;6.17;71.41
70127;BME280;57491;42.694;23.314;2023-01-24T01:37:18;96125.28;;;6.12;71.68
70127;BME280;57491;42.694;23.314;2023-01-24T01:39:45;96121.22;;;6.19;71.37
70127;BME280;57491;42.694;23.314;2023-01-24T01:42:12;96121.81;;;6.02;71.63
70127;BME280;57491;42.694;23.314;2023-01-24T01:44:40;96119.25;;;5.91;71.86
70127;BME280;57491;42.694;23.314;2023-01-24T01:47:20;96115.25;;;5.98;71.70
70127;BME280;57491;42.694;23.314;2023-01-24T01:49:54;96124.31;;;5.92;72.21
70127;BME280;57491;42.694;23.314;2023-01-24T01:52:24;96114.72;;;6.04;71.83
70127;BME280;57491;42.694;23.314;2023-01-24T01:54:57;96114.69;;;6.15;71.54
70127;BME280;57491;42.694;23.314;2023-01-24T01:57:29;96103.41;;;6.16;71.94
70127;BME280;57491;42.694;23.314;2023-01-24T01:59:59;96114.69;;;6.15;71.01
70127;BME280;57491;42.694;23.314;2023-01-24T02:02:30;96113.38;;;6.20;71.60
70127;BME280;57491;42.694;23.314;2023-01-24T02:05:00;96117.72;;;6.20;71.00
70127;BME280;57491;42.694;23.314;2023-01-24T02:07:30;96115.34;;;6.17;70.81
70127;BME280;57491;42.694;23.314;2023-01-24T02:10:00;96113.59;;;6.17;71.19
70127;BME280;57491;42.694;23.314;2023-01-24T02:12:29;96109.34;;;6.07;71.21
70127;BME280;57491;42.694;23.314;2023-01-24T02:14:58;96117.53;;;6.12;71.27
70127;BME280;57491;42.694;23.314;2023-01-24T02:17:46;96104.22;;;5.96;71.64
70127;BME280;57491;42.694;23.314;2023-01-24T02:20:28;96107.00;;;6.04;71.75
70127;BME280;57491;42.694;23.314;2023-01-24T02:23:03;96104.09;;;5.97;71.62
70127;BME280;57491;42.694;23.314;2023-01-24T02:25:39;96098.69;;;6.00;71.73
70127;BME280;57491;42.694;23.314;2023-01-24T02:28:09;96103.72;;;6.02;71.79
70127;BME280;57491;42.694;23.314;2023-01-24T02:30:37;96106.06;;;6.05;71.79
70127;BME280;57491;42.694;23.314;2023-01-24T02:33:10;96102.28;;;6.09;71.43
70127;BME280;57491;42.694;23.314;2023-01-24T02:35:38;96093.28;;;6.03;71.07
70127;BME280;57491;42.694;23.314;2023-01-24T02:38:11;96111.22;;;6.05;71.03
70127;BME280;57491;42.694;23.314;2023-01-24T02:40:40;96103.28;;;5.97;71.41
70127;BME280;57491;42.694;23.314;2023-01-24T02:43:11;96108.47;;;5.85;72.13
70127;BME280;57491;42.694;23.314;2023-01-24T02:45:40;96114.09;;;5.91;71.86
70127;BME280;57491;42.694;23.314;2023-01-24T02:48:07;96101.16;;;5.70;72.41
70127;BME280;57491;42.694;23.314;2023-01-24T02:50:34;96101.34;;;5.78;72.31
70127;BME280;57491;42.694;23.314;2023-01-24T02:53:15;96116.19;;;5.85;72.09
70127;BME280;57491;42.694;23.314;2023-01-24T02:55:58;96094.66;;;5.87;72.14
70127;BME280;57491;42.694;23.314;2023-01-24T02:58:44;96106.13;;;5.94;71.52
70127;BME280;57491;42.694;23.314;2023-01-24T03:01:12;96092.97;;;5.97;71.70
70127;BME280;57491;42.694;23.314;2023-01-24T03:03:40;96102.72;;;5.93;71.63
70127;BME280;57491;42.694;23.314;2023-01-24T03:06:08;96099.09;;;5.84;72.27
70127;BME280;57491;42.694;23.314;2023-01-24T03:08:36;96098.13;;;5.85;71.97
70127;BME280;57491;42.694;23.314;2023-01-24T03:11:04;96093.72;;;5.88;71.99
70127;BME280;57491;42.694;23.314;2023-01-24T03:13:31;96095.09;;;5.92;71.80
70127;BME280;57491;42.694;23.314;2023-01-24T03:16:18;96089.59;;;5.85;72.12
70127;BME280;57491;42.694;23.314;2023-01-24T03:19:03;96114.34;;;5.88;72.42
70127;BME280;57491;42.694;23.314;2023-01-24T03:21:47;96099.81;;;5.87;72.03
70127;BME280;57491;42.694;23.314;2023-01-24T03:24:31;96099.03;;;5.43;72.45
70127;BME280;57491;42.694;23.314;2023-01-24T03:27:16;96116.88;;;5.35;73.14
70127;BME280;57491;42.694;23.314;2023-01-24T03:30:01;96111.22;;;5.41;73.08
70127;BME280;57491;42.694;23.314;2023-01-24T03:32:47;96103.78;;;5.59;71.77
70127;BME280;57491;42.694;23.314;2023-01-24T03:35:32;96098.69;;;5.68;71.80
70127;BME280;57491;42.694;23.314;2023-01-24T03:37:59;96101.78;;;5.83;71.58
70127;BME280;57491;42.694;23.314;2023-01-24T03:40:44;96103.25;;;5.76;71.53
70127;BME280;57491;42.694;23.314;2023-01-24T03:43:11;96096.75;;;5.93;70.51
70127;BME280;57491;42.694;23.314;2023-01-24T03:45:39;96097.00;;;5.90;70.11
70127;BME280;57491;42.694;23.314;2023-01-24T03:48:09;96101.19;;;5.91;70.81
70127;BME280;57491;42.694;23.314;2023-01-24T03:50:40;96093.34;;;5.81;71.03
70127;BME280;57491;42.694;23.314;2023-01-24T03:53:26;96104.41;;;5.72;70.88
70127;BME280;57491;42.694;23.314;2023-01-24T03:55:55;96090.00;;;5.69;71.08
70127;BME280;57491;42.694;23.314;2023-01-24T03:58:23;96093.34;;;5.60;71.07
70127;BME280;57491;42.694;23.314;2023-01-24T04:00:51;96102.53;;;5.74;71.12
70127;BME280;57491;42.694;23.314;2023-01-24T04:03:20;96096.25;;;5.67;71.72
70127;BME280;57491;42.694;23.314;2023-01-24T04:05:47;96091.88;;;5.67;72.19
70127;BME280;57491;42.694;23.314;2023-01-24T04:08:15;96084.00;;;5.48;72.24
70127;BME280;57491;42.694;23.314;2023-01-24T04:10:42;96093.91;;;5.32;72.81
70127;BME280;57491;42.694;23.314;2023-01-24T04:13:09;96079.88;;;5.25;72.62
70127;BME280;57491;42.694;23.314;2023-01-24T04:15:37;96085.34;;;5.31;72.64
70127;BME280;57491;42.694;23.314;2023-01-24T04:18:05;96085.34;;;5.31;72.90
70127;BME280;57491;42.694;23.314;2023-01-24T04:20:35;96086.50;;;5.38;73.28
70127;BME280;57491;42.694;23.314;2023-01-24T04:23:04;96084.97;;;5.36;72.61
70127;BME280;57491;42.694;23.314;2023-01-24T04:25:32;96088.97;;;5.40;73.08
70127;BME280;57491;42.694;23.314;2023-01-24T04:27:59;96088.75;;;5.32;73.17
70127;BME280;57491;42.694;23.314;2023-01-24T04:30:26;96082.69;;;5.22;73.07
70127;BME280;57491;42.694;23.314;2023-01-24T04:32:53;96087.59;;;5.25;72.97
70127;BME280;57491;42.694;23.314;2023-01-24T04:35:22;96085.50;;;5.19;73.15
70127;BME280;57491;42.694;23.314;2023-01-24T04:37:51;96081.88;;;5.10;73.09
70127;BME280;57491;42.694;23.314;2023-01-24T04:40:20;96088.44;;;5.14;72.75
70127;BME280;57491;42.694;23.314;2023-01-24T04:42:47;96085.13;;;5.23;72.93
70127;BME280;57491;42.694;23.314;2023-01-24T04:45:15;96099.41;;;5.27;72.87
70127;BME280;57491;42.694;23.314;2023-01-24T04:47:42;96087.84;;;5.22;72.58
70127;BME280;57491;42.694;23.314;2023-01-24T04:50:10;96106.03;;;5.09;73.18
70127;BME280;57491;42.694;23.314;2023-01-24T04:52:37;96096.09;;;4.93;73.51
70127;BME280;57491;42.694;23.314;2023-01-24T04:55:06;96106.53;;;5.03;73.83
70127;BME280;57491;42.694;23.314;2023-01-24T04:57:33;96102.16;;;5.15;72.71
70127;BME280;57491;42.694;23.314;2023-01-24T05:00:00;96090.19;;;5.14;72.53
70127;BME280;57491;42.694;23.314;2023-01-24T05:02:28;96100.53;;;5.03;72.64
70127;BME280;57491;42.694;23.314;2023-01-24T05:04:55;96110.13;;;5.12;73.14
70127;BME280;57491;42.694;23.314;2023-01-24T05:07:22;96106.16;;;5.08;73.11
70127;BME280;57491;42.694;23.314;2023-01-24T05:09:49;96111.28;;;5.19;72.88
70127;BME280;57491;42.694;23.314;2023-01-24T05:12:17;96122.19;;;5.11;73.09
70127;BME280;57491;42.694;23.314;2023-01-24T05:14:45;96119.16;;;5.06;72.89
70127;BME280;57491;42.694;23.314;2023-01-24T05:17:12;96120.91;;;5.06;72.82
70127;BME280;57491;42.694;23.314;2023-01-24T05:19:39;96105.59;;;4.93;72.66
70127;BME280;57491;42.694;23.314;2023-01-24T05:22:06;96124.78;;;5.11;73.09
70127;BME280;57491;42.694;23.314;2023-01-24T05:24:33;96127.94;;;5.15;72.61
70127;BME280;57491;42.694;23.314;2023-01-24T05:27:00;96127.56;;;5.19;72.53
70127;BME280;57491;42.694;23.314;2023-01-24T05:29:28;96139.41;;;5.22;72.24
70127;BME280;57491;42.694;23.314;2023-01-24T05:31:55;96145.75;;;5.18;71.98
70127;BME280;57491;42.694;23.314;2023-01-24T05:34:22;96155.34;;;5.16;72.17
70127;BME280;57491;42.694;23.314;2023-01-24T05:36:53;96153.34;;;5.19;72.44
70127;BME280;57491;42.694;23.314;2023-01-24T05:39:20;96145.47;;;5.32;71.71
70127;BME280;57491;42.694;23.314;2023-01-24T05:41:47;96154.50;;;5.37;72.24
70127;BME280;57491;42.694;23.314;2023-01-24T05:44:15;96145.34;;;5.33;70.90
70127;BME280;57491;42.694;23.314;2023-01-24T05:46:43;96158.09;;;5.46;70.91
70127;BME280;57491;42.694;23.314;2023-01-24T05:49:10;96157.28;;;5.46;70.85
70127;BME280;57491;42.694;23.314;2023-01-24T05:51:37;96162.78;;;5.41;70.95
70127;BME280;57491;42.694;23.314;2023-01-24T05:54:04;96170.31;;;5.44;70.63
70127;BME280;57491;42.694;23.314;2023-01-24T05:56:31;96174.09;;;5.29;71.70
70127;BME280;57491;42.694;23.314;2023-01-24T05:58:58;96171.03;;;5.24;70.95
70127;BME280;57491;42.694;23.314;2023-01-24T06:01:26;96180.34;;;5.04;72.01
70127;BME280;57491;42.694;23.314;2023-01-24T06:03:55;96179.25;;;4.95;73.00
70127;BME280;57491;42.694;23.314;2023-01-24T06:06:23;96174.47;;;5.13;72.78
70127;BME280;57491;42.694;23.314;2023-01-24T06:08:51;96180.78;;;5.09;72.06
70127;BME280;57491;42.694;23.314;2023-01-24T06:11:20;96176.22;;;5.02;72.45
70127;BME280;57491;42.694;23.314;2023-01-24T06:13:47;96192.63;;;4.89;72.86
70127;BME280;57491;42.694;23.314;2023-01-24T06:16:16;96181.38;;;5.02;72.52
70127;BME280;57491;42.694;23.314;2023-01-24T06:18:44;96183.94;;;5.02;72.36
70127;BME280;57491;42.694;23.314;2023-01-24T06:21:22;96183.84;;;5.03;72.92
70127;BME280;57491;42.694;23.314;2023-01-24T06:23:54;96189.09;;;5.02;72.64
70127;BME280;57491;42.694;23.314;2023-01-24T06:26:22;96188.75;;;5.06;72.79
70127;BME280;57491;42.694;23.314;2023-01-24T06:28:52;96202.59;;;4.94;72.92
70127;BME280;57491;42.694;23.314;2023-01-24T06:31:32;96198.94;;;4.97;73.24
70127;BME280;57491;42.694;23.314;2023-01-24T06:34:16;96207.59;;;4.95;73.26
70127;BME280;57491;42.694;23.314;2023-01-24T06:36:54;96197.41;;;4.83;73.88
70127;BME280;57491;42.694;23.314;2023-01-24T06:39:27;96218.63;;;4.98;74.19
70127;BME280;57491;42.694;23.314;2023-01-24T06:41:57;96209.97;;;4.99;73.68
70127;BME280;57491;42.694;23.314;2023-01-24T06:44:28;96217.22;;;5.05;73.07
70127;BME280;57491;42.694;23.314;2023-01-24T06:46:55;96217.44;;;4.79;74.18
70127;BME280;57491;42.694;23.314;2023-01-24T06:49:22;96220.03;;;4.79;76.13
70127;BME280;57491;42.694;23.314;2023-01-24T06:51:52;96223.75;;;4.86;74.77
70127;BME280;57491;42.694;23.314;2023-01-24T06:54:19;96220.84;;;4.80;74.58
70127;BME280;57491;42.694;23.314;2023-01-24T06:56:50;96227.28;;;4.85;74.53
70127;BME280;57491;42.694;23.314;2023-01-24T06:59:17;96222.72;;;4.89;74.07
70127;BME280;57491;42.694;23.314;2023-01-24T07:01:47;96229.41;;;4.80;74.11
70127;BME280;57491;42.694;23.314;2023-01-24T07:04:15;96229.38;;;4.69;75.22
70127;BME280;57491;42.694;23.314;2023-01-24T07:06:42;96228.34;;;4.72;74.59
70127;BME280;57491;42.694;23.314;2023-01-24T07:09:13;96228.22;;;4.84;75.03
70127;BME280;57491;42.694;23.314;2023-01-24T07:11:40;96229.25;;;4.82;74.32
70127;BME280;57491;42.694;23.314;2023-01-24T07:14:07;96223.88;;;4.74;73.81
70127;BME280;57491;42.694;23.314;2023-01-24T07:16:34;96242.50;;;4.88;74.67
70127;BME280;57491;42.694;23.314;2023-01-24T07:19:13;96237.47;;;4.87;74.57
70127;BME280;57491;42.694;23.314;2023-01-24T07:21:41;96242.28;;;4.80;74.56
70127;BME280;57491;42.694;23.314;2023-01-24T07:24:13;96248.13;;;4.82;74.97
70127;BME280;57491;42.694;23.314;2023-01-24T07:26:44;96241.91;;;4.74;73.86
70127;BME280;57491;42.694;23.314;2023-01-24T07:29:14;96251.38;;;4.73;74.30
70127;BME280;57491;42.694;23.314;2023-01-24T07:31:41;96248.13;;;4.71;74.24
70127;BME280;57491;42.694;23.314;2023-01-24T07:34:08;96247.41;;;4.69;74.66
70127;BME280;57491;42.694;23.314;2023-01-24T07:36:36;96244.38;;;4.86;74.77
70127;BME280;57491;42.694;23.314;2023-01-24T07:39:03;96251.41;;;4.95;73.86
70127;BME280;57491;42.694;23.314;2023-01-24T07:41:32;96255.97;;;4.92;74.36
70127;BME280;57491;42.694;23.314;2023-01-24T07:43:59;96262.09;;;5.02;73.89
70127;BME280;57491;42.694;23.314;2023-01-24T07:46:30;96258.69;;;5.02;73.17
70127;BME280;57491;42.694;23.314;2023-01-24T07:48:57;96262.53;;;4.96;73.58
70127;BME280;57491;42.694;23.314;2023-01-24T07:51:25;96265.25;;;4.94;72.85
70127;BME280;57491;42.694;23.314;2023-01-24T07:53:52;96271.81;;;4.99;73.43
70127;BME280;57491;42.694;23.314;2023-01-24T07:56:19;96270.50;;;4.93;73.72
70127;BME280;57491;42.694;23.314;2023-01-24T07:58:47;96277.78;;;4.88;73.99
70127;BME280;57491;42.694;23.314;2023-01-24T08:01:18;96276.03;;;5.00;73.83
70127;BME280;57491;42.694;23.314;2023-01-24T08:03:45;96279.19;;;4.92;73.86
70127;BME280;57491;42.694;23.314;2023-01-24T08:06:12;96290.19;;;4.94;74.80
70127;BME280;57491;42.694;23.314;2023-01-24T08:08:39;96286.34;;;5.00;74.45
70127;BME280;57491;42.694;23.314;2023-01-24T08:11:07;96286.13;;;5.03;73.67
70127;BME280;57491;42.694;23.314;2023-01-24T08:13:36;96283.28;;;4.94;73.39
70127;BME280;57491;42.694;23.314;2023-01-24T08:16:05;96286.13;;;5.03;72.50
70127;BME280;57491;42.694;23.314;2023-01-24T08:18:32;96292.31;;;4.89;72.70
70127;BME280;57491;42.694;23.314;2023-01-24T08:21:00;96287.16;;;4.89;73.22
70127;BME280;57491;42.694;23.314;2023-01-24T08:23:27;96292.66;;;4.95;73.91
70127;BME280;57491;42.694;23.314;2023-01-24T08:25:56;96286.56;;;4.85;72.81
70127;BME280;57491;42.694;23.314;2023-01-24T08:28:23;96284.69;;;4.87;73.26
70127;BME280;57491;42.694;23.314;2023-01-24T08:30:50;96291.03;;;4.94;72.89
70127;BME280;57491;42.694;23.314;2023-01-24T08:33:19;96285.97;;;4.93;73.32
70127;BME280;57491;42.694;23.314;2023-01-24T08:35:46;96295.22;;;4.95;73.62
70127;BME280;57491;42.694;23.314;2023-01-24T08:38:14;96289.16;;;5.08;72.90
70127;BME280;57491;42.694;23.314;2023-01-24T08:40:41;96291.75;;;5.19;73.14
70127;BME280;57491;42.694;23.314;2023-01-24T08:43:08;96293.13;;;5.01;72.22
70127;BME280;57491;42.694;23.314;2023-01-24T08:45:35;96295.22;;;4.95;72.76
70127;BME280;57491;42.694;23.314;2023-01-24T08:48:04;96289.13;;;4.97;72.70
70127;BME280;57491;42.694;23.314;2023-01-24T08:50:32;96285.25;;;4.91;73.48
70127;BME280;57491;42.694;23.314;2023-01-24T08:52:59;96291.97;;;5.05;72.81
70127;BME280;57491;42.694;23.314;2023-01-24T08:55:26;96283.28;;;5.06;72.37
70127;BME280;57491;42.694;23.314;2023-01-24T08:57:59;96286.13;;;5.03;72.14
70127;BME280;57491;42.694;23.314;2023-01-24T09:00:26;96288.25;;;5.09;71.93
70127;BME280;57491;42.694;23.314;2023-01-24T09:02:53;96284.47;;;5.02;72.30
70127;BME280;57491;42.694;23.314;2023-01-24T09:05:20;96280.94;;;5.14;73.05
70127;BME280;57491;42.694;23.314;2023-01-24T09:07:48;96283.06;;;5.20;71.65
70127;BME280;57491;42.694;23.314;2023-01-24T09:10:16;96279.34;;;5.13;71.36
70127;BME280;57491;42.694;23.314;2023-01-24T09:12:43;96269.47;;;5.07;71.61
70127;BME280;57491;42.694;23.314;2023-01-24T09:15:10;96278.84;;;5.19;71.42
70127;BME280;57491;42.694;23.314;2023-01-24T09:17:37;96286.81;;;5.27;70.70
70127;BME280;57491;42.694;23.314;2023-01-24T09:20:06;96278.38;;;5.36;71.06
70127;BME280;57491;42.694;23.314;2023-01-24T09:22:33;96286.13;;;5.47;70.18
70127;BME280;57491;42.694;23.314;2023-01-24T09:25:01;96277.22;;;5.40;70.91
70127;BME280;57491;42.694;23.314;2023-01-24T09:27:29;96282.03;;;5.45;69.88
70127;BME280;57491;42.694;23.314;2023-01-24T09:29:56;96287.41;;;5.42;70.32
70127;BME280;57491;42.694;23.314;2023-01-24T09:32:23;96286.94;;;5.48;69.77
70127;BME280;57491;42.694;23.314;2023-01-24T09:34:51;96281.66;;;5.60;69.11
70127;BME280;57491;42.694;23.314;2023-01-24T09:37:18;96282.38;;;5.51;68.47
70127;BME280;57491;42.694;23.314;2023-01-24T09:39:45;96267.97;;;5.49;69.13
70127;BME280;57491;42.694;23.314;2023-01-24T09:42:26;96270.25;;;5.85;70.55
70127;BME280;57491;42.694;23.314;2023-01-24T09:45:01;96276.44;;;6.05;67.92
70127;BME280;57491;42.694;23.314;2023-01-24T09:47:39;96288.69;;;6.23;67.79
70127;BME280;57491;42.694;23.314;2023-01-24T09:50:14;96270.34;;;6.38;67.70
70127;BME280;57491;42.694;23.314;2023-01-24T09:52:44;96277.50;;;6.66;66.68
70127;BME280;57491;42.694;23.314;2023-01-24T09:55:14;96272.47;;;6.33;67.41
70127;BME280;57491;42.694;23.314;2023-01-24T09:57:50;96275.81;;;6.12;66.81
70127;BME280;57491;42.694;23.314;2023-01-24T10:00:22;96269.84;;;6.12;68.09
70127;BME280;57491;42.694;23.314;2023-01-24T10:02:50;96271.94;;;6.18;67.65
70127;BME280;57491;42.694;23.314;2023-01-24T10:05:19;96269.69;;;6.24;68.02
70127;BME280;57491;42.694;23.314;2023-01-24T10:08:00;96255.03;;;6.25;67.06
70127;BME280;57491;42.694;23.314;2023-01-24T10:10:40;96269.41;;;6.07;67.52
70127;BME280;57491;42.694;23.314;2023-01-24T10:13:20;96267.50;;;6.09;67.77
70127;BME280;57491;42.694;23.314;2023-01-24T10:15:54;96258.97;;;5.97;66.94
70127;BME280;57491;42.694;23.314;2023-01-24T10:18:41;96248.59;;;5.54;68.67
70127;BME280;57491;42.694;23.314;2023-01-24T10:21:25;96254.56;;;5.66;68.94
70127;BME280;57491;42.694;23.314;2023-01-24T10:23:57;96256.16;;;6.00;68.67
70127;BME280;57491;42.694;23.314;2023-01-24T10:26:33;96257.69;;;6.03;67.87
70127;BME280;57491;42.694;23.314;2023-01-24T10:29:09;96253.72;;;5.88;67.36
70127;BME280;57491;42.694;23.314;2023-01-24T10:31:39;96245.72;;;6.02;69.11
70127;BME280;57491;42.694;23.314;2023-01-24T10:34:10;96244.25;;;6.20;67.50
70127;BME280;57491;42.694;23.314;2023-01-24T10:36:41;96234.72;;;6.20;66.60
70127;BME280;57491;42.694;23.314;2023-01-24T10:39:10;96246.97;;;6.39;66.59
70127;BME280;57491;42.694;23.314;2023-01-24T10:41:37;96243.56;;;6.39;65.68
70127;BME280;57491;42.694;23.314;2023-01-24T10:44:10;96237.22;;;6.11;66.62
70127;BME280;57491;42.694;23.314;2023-01-24T10:49:49;96240.47;;;5.92;67.03
70127;BME280;57491;42.694;23.314;2023-01-24T10:52:20;96243.25;;;6.00;68.00
70127;BME280;57491;42.694;23.314;2023-01-24T10:54:49;96227.28;;;5.95;67.17
70127;BME280;57491;42.694;23.314;2023-01-24T10:57:37;96235.41;;;5.79;68.16
70127;BME280;57491;42.694;23.314;2023-01-24T11:00:17;96253.84;;;5.64;68.15
70127;BME280;57491;42.694;23.314;2023-01-24T11:02:47;96240.53;;;5.48;68.06
70127;BME280;57491;42.694;23.314;2023-01-24T11:05:17;96238.16;;;5.56;68.74
70127;BME280;57491;42.694;23.314;2023-01-24T11:07:46;96235.78;;;5.64;67.95
70127;BME280;57491;42.694;23.314;2023-01-24T11:10:20;96217.41;;;5.46;69.11
70127;BME280;57491;42.694;23.314;2023-01-24T11:12:52;96235.22;;;5.60;67.99
70127;BME280;57491;42.694;23.314;2023-01-24T11:15:23;96221.81;;;5.77;67.77
70127;BME280;57491;42.694;23.314;2023-01-24T11:17:56;96230.63;;;5.64;67.55
70127;BME280;57491;42.694;23.314;2023-01-24T11:20:29;96221.41;;;5.50;68.61
70127;BME280;57491;42.694;23.314;2023-01-24T11:23:05;96217.53;;;5.56;68.53
70127;BME280;57491;42.694;23.314;2023-01-24T11:25:32;96219.53;;;5.52;68.79
70127;BME280;57491;42.694;23.314;2023-01-24T11:27:59;96219.78;;;5.49;69.38
70127;BME280;57491;42.694;23.314;2023-01-24T11:30:28;96213.56;;;5.40;69.23
70127;BME280;57491;42.694;23.314;2023-01-24T11:33:22;96216.75;;;5.44;68.44
70127;BME280;57491;42.694;23.314;2023-01-24T11:35:53;96220.03;;;5.35;68.62
70127;BME280;57491;42.694;23.314;2023-01-24T11:38:24;96213.34;;;5.44;68.99
70127;BME280;57491;42.694;23.314;2023-01-24T11:41:03;96206.38;;;5.55;69.39
70127;BME280;57491;42.694;23.314;2023-01-24T11:43:51;96211.78;;;5.52;69.19
70127;BME280;57491;42.694;23.314;2023-01-24T11:46:34;96208.84;;;5.57;68.33
70127;BME280;57491;42.694;23.314;2023-01-24T11:49:19;96214.34;;;5.63;68.09
70127;BME280;57491;42.694;23.314;2023-01-24T11:51:53;96216.25;;;5.50;68.83
70127;BME280;57491;42.694;23.314;2023-01-24T11:54:33;96218.25;;;5.58;68.61
70127;BME280;57491;42.694;23.314;2023-01-24T11:57:13;96210.19;;;5.40;67.97
70127;BME280;57491;42.694;23.314;2023-01-24T11:59:51;96214.38;;;5.52;68.17
70127;BME280;57491;42.694;23.314;2023-01-24T12:02:32;96211.28;;;5.69;68.75
70127;BME280;57491;42.694;23.314;2023-01-24T12:05:16;96210.09;;;5.73;67.59
70127;BME280;57491;42.694;23.314;2023-01-24T12:07:56;96215.50;;;5.70;67.64
70127;BME280;57491;42.694;23.314;2023-01-24T12:10:27;96206.94;;;5.59;67.94
70127;BME280;57491;42.694;23.314;2023-01-24T12:13:04;96215.28;;;5.62;67.87
70127;BME280;57491;42.694;23.314;2023-01-24T12:15:38;96211.78;;;5.52;67.56
70127;BME280;57491;42.694;23.314;2023-01-24T12:18:34;96213.44;;;5.53;68.17
70127;BME280;57491;42.694;23.314;2023-01-24T12:21:06;96208.38;;;5.52;67.80
70127;BME280;57491;42.694;23.314;2023-01-24T12:23:41;96206.63;;;5.41;67.99
70127;BME280;57491;42.694;23.314;2023-01-24T12:26:13;96210.25;;;5.61;68.61
70127;BME280;57491;42.694;23.314;2023-01-24T12:28:45;96212.34;;;5.67;68.06
70127;BME280;57491;42.694;23.314;2023-01-24T12:31:21;96206.84;;;5.71;67.34
70127;BME280;57491;42.694;23.314;2023-01-24T12:33:57;96213.13;;;5.78;67.02
70127;BME280;57491;42.694;23.314;2023-01-24T12:36:33;96208.44;;;5.83;66.87
70127;BME280;57491;42.694;23.314;2023-01-24T12:39:06;96210.31;;;5.93;66.97
70127;BME280;57491;42.694;23.314;2023-01-24T12:41:37;96209.84;;;5.76;66.72
70127;BME280;57491;42.694;23.314;2023-01-24T12:44:15;96210.72;;;5.66;67.11
70127;BME280;57491;42.694;23.314;2023-01-24T12:46:58;96207.31;;;5.65;67.91
70127;BME280;57491;42.694;23.314;2023-01-24T12:49:33;96209.22;;;5.52;67.46
70127;BME280;57491;42.694;23.314;2023-01-24T12:52:08;96209.31;;;5.51;68.23
70127;BME280;57491;42.694;23.314;2023-01-24T12:54:44;96212.16;;;5.48;68.08
70127;BME280;57491;42.694;23.314;2023-01-24T12:57:19;96208.50;;;5.61;69.25
70127;BME280;57491;42.694;23.314;2023-01-24T12:59:49;96190.19;;;5.64;67.50
70127;BME280;57491;42.694;23.314;2023-01-24T13:02:26;96205.66;;;5.64;66.78
70127;BME280;57491;42.694;23.314;2023-01-24T13:05:05;96201.44;;;5.63;67.13
70127;BME280;57491;42.694;23.314;2023-01-24T13:07:46;96217.16;;;5.71;67.32
70127;BME280;57491;42.694;23.314;2023-01-24T13:10:21;96206.66;;;5.84;66.16
70127;BME280;57491;42.694;23.314;2023-01-24T13:12:51;96206.47;;;5.65;66.13
70127;BME280;57491;42.694;23.314;2023-01-24T13:15:21;96207.97;;;5.90;66.78
70127;BME280;57491;42.694;23.314;2023-01-24T13:18:09;96214.66;;;5.92;66.01
70127;BME280;57491;42.694;23.314;2023-01-24T13:20:53;96210.22;;;6.15;65.27
70127;BME280;57491;42.694;23.314;2023-01-24T13:23:35;96215.69;;;6.21;64.20